createdAt,value
2019-06-26T00:02:08.062Z,11.53
2019-06-26T00:08:53.007Z,12.95
2019-06-26T00:15:39.395Z,13.65
2019-06-26T00:22:24.258Z,13.80
2019-06-26T00:29:09.140Z,14.13
2019-06-26T00:35:54.074Z,12.50
2019-06-26T00:42:39.110Z,12.03
2019-06-26T00:49:23.978Z,17.25
2019-06-26T00:56:08.852Z,11.78
2019-06-26T01:02:53.718Z,10.95
2019-06-26T01:09:38.662Z,11.88
2019-06-26T01:16:23.673Z,13.15
2019-06-26T01:23:08.553Z,14.93
2019-06-26T01:29:54.562Z,11.45
2019-06-26T01:36:39.807Z,11.60
2019-06-26T01:43:24.807Z,14.73
2019-06-26T01:50:10.185Z,14.25
2019-06-26T01:56:55.056Z,12.40
2019-06-26T02:03:39.932Z,12.58
2019-06-26T02:10:25.101Z,16.23
2019-06-26T02:17:10.042Z,14.95
2019-06-26T02:23:54.982Z,11.63
2019-06-26T02:30:39.852Z,12.53
2019-06-26T02:37:24.728Z,13.38
2019-06-26T02:44:09.675Z,13.88
2019-06-26T02:50:54.546Z,14.20
2019-06-26T02:57:39.494Z,16.10
2019-06-26T03:04:24.436Z,16.27
2019-06-26T03:11:09.306Z,16.25
2019-06-26T03:17:55.839Z,19.10
2019-06-26T03:24:40.930Z,18.20
2019-06-26T03:31:25.880Z,22.42
2019-06-26T03:38:10.828Z,14.50
2019-06-26T03:44:55.690Z,20.57
2019-06-26T03:51:40.695Z,16.15
2019-06-26T03:58:25.595Z,17.20
2019-06-26T04:05:11.037Z,15.23
2019-06-26T04:11:55.989Z,20.52
2019-06-26T04:18:40.986Z,15.15
2019-06-26T04:25:25.854Z,15.98
2019-06-26T04:32:10.811Z,14.80
2019-06-26T04:38:55.698Z,14.70
2019-06-26T04:45:57.157Z,18.12
2019-06-26T04:52:28.575Z,17.42
2019-06-26T04:59:13.434Z,13.83
2019-06-26T05:05:58.322Z,17.25
2019-06-26T05:12:43.198Z,15.55
2019-06-26T05:19:28.222Z,12.65
2019-06-26T05:26:13.105Z,16.57
2019-06-26T05:32:58.036Z,19.45
2019-06-26T05:39:42.917Z,17.05
2019-06-26T05:46:31.438Z,13.78
2019-06-26T05:53:14.573Z,16.17
2019-06-26T06:00:00.115Z,12.60
2019-06-26T06:06:45.224Z,16.48
2019-06-26T06:13:30.111Z,17.42
2019-06-26T06:20:16.959Z,10.23
2019-06-26T06:27:01.905Z,11.57
2019-06-26T06:33:46.846Z,8.95
2019-06-26T06:40:31.858Z,8.48
2019-06-26T06:47:17.027Z,13.72
2019-06-26T06:54:01.986Z,9.28
2019-06-26T07:00:46.870Z,9.33
2019-06-26T07:07:31.801Z,10.88
2019-06-26T07:14:16.763Z,12.35
2019-06-26T07:21:02.788Z,10.93
2019-06-26T07:27:48.284Z,8.73
2019-06-26T07:34:33.587Z,11.93
2019-06-26T07:41:18.451Z,8.23
2019-06-26T07:48:03.347Z,10.10
2019-06-26T07:54:48.245Z,9.08
2019-06-26T08:01:33.111Z,8.68
2019-06-26T08:08:18.116Z,9.58
2019-06-26T08:15:03.526Z,12.23
2019-06-26T08:21:48.471Z,10.53
2019-06-26T08:28:33.594Z,10.38
2019-06-26T08:35:18.643Z,8.65
2019-06-26T08:42:03.553Z,9.30
2019-06-26T08:48:51.759Z,10.25
2019-06-26T08:55:35.115Z,8.13
2019-06-26T09:02:20.057Z,9.90
2019-06-26T09:09:07.480Z,10.32
2019-06-26T09:15:52.540Z,11.90
2019-06-26T09:22:38.552Z,8.33
2019-06-26T09:29:24.139Z,8.38
2019-06-26T09:36:10.323Z,8.78
2019-06-26T09:42:56.018Z,11.10
2019-06-26T09:49:40.958Z,9.13
2019-06-26T09:56:25.923Z,9.73
2019-06-26T10:03:11.162Z,12.63
2019-06-26T10:09:56.131Z,11.30
2019-06-26T10:16:41.015Z,13.08
2019-06-26T10:23:26.067Z,12.07
2019-06-26T10:30:12.198Z,10.80
2019-06-26T10:36:57.145Z,11.20
2019-06-26T10:43:42.087Z,10.23
2019-06-26T10:50:27.019Z,12.93
2019-06-26T10:57:11.878Z,10.08
2019-06-26T11:03:57.058Z,10.65
2019-06-26T11:10:41.935Z,9.17
2019-06-26T11:17:26.934Z,11.35
2019-06-26T11:24:11.941Z,11.83
2019-06-26T11:30:56.851Z,7.67
2019-06-26T11:37:41.921Z,8.93
2019-06-26T11:44:27.332Z,7.62
2019-06-26T11:51:12.797Z,7.85
2019-06-26T11:57:58.228Z,11.65
2019-06-26T12:04:45.340Z,7.97
2019-06-26T12:11:30.517Z,6.85
2019-06-26T12:18:15.845Z,9.30
2019-06-26T12:25:01.180Z,8.08
2019-06-26T12:31:46.388Z,13.10
2019-06-26T12:38:31.359Z,7.58
2019-06-26T12:45:17.154Z,9.08
2019-06-26T12:52:02.271Z,8.25
2019-06-26T12:58:47.173Z,6.95
2019-06-26T13:05:32.030Z,8.90
2019-06-26T13:12:17.214Z,10.48
2019-06-26T13:19:02.171Z,6.80
2019-06-26T13:25:47.195Z,7.55
2019-06-26T13:32:32.060Z,11.08
2019-06-26T13:39:16.925Z,11.85
2019-06-26T13:46:02.734Z,7.65
2019-06-26T13:52:47.837Z,13.10
2019-06-26T13:59:32.767Z,9.43
2019-06-26T14:06:17.699Z,7.20
2019-06-26T14:13:02.629Z,10.60
2019-06-26T14:19:47.556Z,11.43
2019-06-26T14:26:32.446Z,11.93
2019-06-26T14:33:17.568Z,12.47
2019-06-26T14:40:02.632Z,10.45
2019-06-26T14:46:47.707Z,9.88
2019-06-26T14:53:32.661Z,11.68
2019-06-26T15:00:18.092Z,8.95
2019-06-26T15:07:03.099Z,10.75
2019-06-26T15:13:48.089Z,7.77
2019-06-26T15:20:33.044Z,14.50
2019-06-26T15:27:18.826Z,11.43
2019-06-26T15:34:03.846Z,11.80
2019-06-26T15:40:48.861Z,11.57
2019-06-26T15:47:33.986Z,10.63
2019-06-26T15:54:19.025Z,7.17
2019-06-26T16:01:04.205Z,10.70
2019-06-26T16:07:49.219Z,11.43
2019-06-26T16:14:34.490Z,12.43
2019-06-26T16:21:19.443Z,8.30
2019-06-26T16:28:06.001Z,13.05
2019-06-26T16:34:51.911Z,6.72
2019-06-26T16:41:37.269Z,10.18
2019-06-26T16:48:22.215Z,12.98
2019-06-26T16:55:07.528Z,14.38
2019-06-26T17:01:52.735Z,8.57
2019-06-26T17:08:37.680Z,11.12
2019-06-26T17:15:22.685Z,8.38
2019-06-26T17:22:07.636Z,13.03
2019-06-26T17:28:52.860Z,9.00
2019-06-26T17:35:37.739Z,11.15
2019-06-26T17:42:22.680Z,9.28
2019-06-26T17:49:07.695Z,12.33
2019-06-26T17:55:52.571Z,10.53
2019-06-26T18:02:37.454Z,9.05
2019-06-26T18:09:22.315Z,8.75
2019-06-26T18:16:07.188Z,13.00
2019-06-26T18:23:06.040Z,8.97
2019-06-26T18:29:38.766Z,12.55
2019-06-26T18:36:24.016Z,14.47
2019-06-26T18:43:08.928Z,10.88
2019-06-26T18:49:54.091Z,10.30
2019-06-26T18:56:39.381Z,10.82
2019-06-26T19:03:24.725Z,11.38
2019-06-26T19:10:10.596Z,11.60
2019-06-26T19:16:56.030Z,12.33
2019-06-26T19:23:41.039Z,12.73
2019-06-26T19:30:26.139Z,16.25
2019-06-26T19:37:11.241Z,11.85
2019-06-26T19:43:56.223Z,13.38
2019-06-26T19:50:43.915Z,11.73
2019-06-26T19:57:29.283Z,11.75
2019-06-26T20:04:14.383Z,15.13
2019-06-26T20:10:59.343Z,13.83
2019-06-26T20:17:44.419Z,12.03
2019-06-26T20:24:42.808Z,13.07
2019-06-26T20:31:16.305Z,14.87
2019-06-26T20:38:01.209Z,16.32
2019-06-26T20:44:46.416Z,11.95
2019-06-26T20:51:31.567Z,12.40
2019-06-26T20:58:16.507Z,11.65
2019-06-26T21:05:01.471Z,14.80
2019-06-26T21:11:49.706Z,13.95
2019-06-26T21:18:38.060Z,15.28
2019-06-26T21:25:22.076Z,15.78
2019-06-26T21:32:07.839Z,12.63
2019-06-26T21:38:53.142Z,16.07
2019-06-26T21:45:38.059Z,15.63
2019-06-26T21:52:22.931Z,17.35
2019-06-26T21:59:08.343Z,19.12
2019-06-26T22:06:11.664Z,15.30
2019-06-26T22:12:58.352Z,17.05
2019-06-26T22:19:43.657Z,13.25
2019-06-26T22:26:29.315Z,14.80
2019-06-26T22:33:14.399Z,12.58
2019-06-26T22:39:59.504Z,19.00
2019-06-26T22:46:44.384Z,18.85
2019-06-26T22:53:29.264Z,12.95
2019-06-26T23:00:15.524Z,15.60
2019-06-26T23:07:00.706Z,25.95
2019-06-26T23:13:46.195Z,14.73
2019-06-26T23:20:31.063Z,16.20
2019-06-26T23:27:16.010Z,19.62
2019-06-26T23:34:03.206Z,17.60
2019-06-26T23:40:48.318Z,15.15
2019-06-26T23:47:33.255Z,16.10
2019-06-26T23:54:18.134Z,15.45
